Terminal Aerodrome Forecast
Issued by NWS

Home | Current Version | Previous Version | Text Only | Print | Product List | Glossary On
Versions: 1 2 3 4 5 6 7 8 9 10 11 12 13 14 15 16
000
FTUS46 KLOX 041700
TAFPMD
TAF
KPMD 041735Z 0418/0518 VRB03KT P6SM SCT250
     FM042100 05012KT P6SM SCT250
     FM050300 VRB03KT P6SM SKC=

USA.gov is the U.S. government's official web portal to all federal, state and local government web resources and services.